sensor_id;sensor_type;location;lat;lon;timestamp;P1;durP1;ratioP1;P2;durP2;ratioP2
59790;SDS011;47431;51.640;5.554;2022-12-22T00:01:00;26.77;;;18.35;;
59790;SDS011;47431;51.640;5.554;2022-12-22T00:03:44;28.55;;;18.70;;
59790;SDS011;47431;51.640;5.554;2022-12-22T00:06:29;29.92;;;18.42;;
59790;SDS011;47431;51.640;5.554;2022-12-22T00:09:13;23.60;;;18.17;;
59790;SDS011;47431;51.640;5.554;2022-12-22T00:11:56;27.85;;;18.52;;
59790;SDS011;47431;51.640;5.554;2022-12-22T00:14:41;25.80;;;19.40;;
59790;SDS011;47431;51.640;5.554;2022-12-22T00:17:26;25.92;;;17.98;;
59790;SDS011;47431;51.640;5.554;2022-12-22T00:20:12;25.63;;;17.95;;
59790;SDS011;47431;51.640;5.554;2022-12-22T00:22:57;27.20;;;18.48;;
59790;SDS011;47431;51.640;5.554;2022-12-22T00:25:41;28.58;;;18.38;;
59790;SDS011;47431;51.640;5.554;2022-12-22T00:28:25;23.55;;;18.10;;
59790;SDS011;47431;51.640;5.554;2022-12-22T00:31:10;26.55;;;18.63;;
59790;SDS011;47431;51.640;5.554;2022-12-22T00:33:54;24.50;;;18.88;;
59790;SDS011;47431;51.640;5.554;2022-12-22T00:36:38;26.55;;;19.02;;
59790;SDS011;47431;51.640;5.554;2022-12-22T00:39:23;29.15;;;17.90;;
59790;SDS011;47431;51.640;5.554;2022-12-22T00:42:07;27.95;;;18.55;;
59790;SDS011;47431;51.640;5.554;2022-12-22T00:44:51;24.15;;;17.70;;
59790;SDS011;47431;51.640;5.554;2022-12-22T00:47:35;22.90;;;17.55;;
59790;SDS011;47431;51.640;5.554;2022-12-22T00:50:19;26.25;;;18.40;;
59790;SDS011;47431;51.640;5.554;2022-12-22T00:53:09;23.25;;;18.27;;
59790;SDS011;47431;51.640;5.554;2022-12-22T00:55:53;25.52;;;16.70;;
59790;SDS011;47431;51.640;5.554;2022-12-22T00:58:37;24.25;;;17.27;;
59790;SDS011;47431;51.640;5.554;2022-12-22T01:01:22;27.35;;;18.30;;
59790;SDS011;47431;51.640;5.554;2022-12-22T01:04:08;25.65;;;17.35;;
59790;SDS011;47431;51.640;5.554;2022-12-22T01:06:53;24.35;;;17.65;;
59790;SDS011;47431;51.640;5.554;2022-12-22T01:09:36;27.83;;;17.70;;
59790;SDS011;47431;51.640;5.554;2022-12-22T01:12:22;27.00;;;17.67;;
59790;SDS011;47431;51.640;5.554;2022-12-22T01:15:13;27.80;;;16.77;;
59790;SDS011;47431;51.640;5.554;2022-12-22T01:17:59;26.08;;;18.58;;
59790;SDS011;47431;51.640;5.554;2022-12-22T01:20:43;24.48;;;17.00;;
59790;SDS011;47431;51.640;5.554;2022-12-22T01:23:27;24.80;;;18.05;;
59790;SDS011;47431;51.640;5.554;2022-12-22T01:26:11;27.90;;;18.65;;
59790;SDS011;47431;51.640;5.554;2022-12-22T01:28:56;28.80;;;18.10;;
59790;SDS011;47431;51.640;5.554;2022-12-22T01:31:40;23.80;;;15.75;;
59790;SDS011;47431;51.640;5.554;2022-12-22T01:34:23;27.13;;;18.42;;
59790;SDS011;47431;51.640;5.554;2022-12-22T01:37:07;29.60;;;19.20;;
59790;SDS011;47431;51.640;5.554;2022-12-22T01:39:51;29.67;;;19.02;;
59790;SDS011;47431;51.640;5.554;2022-12-22T01:42:36;24.92;;;18.70;;
59790;SDS011;47431;51.640;5.554;2022-12-22T01:45:22;27.50;;;19.35;;
59790;SDS011;47431;51.640;5.554;2022-12-22T01:48:09;27.85;;;19.20;;
59790;SDS011;47431;51.640;5.554;2022-12-22T01:51:25;23.38;;;16.95;;
59790;SDS011;47431;51.640;5.554;2022-12-22T01:54:10;23.40;;;17.40;;
59790;SDS011;47431;51.640;5.554;2022-12-22T01:57:04;27.23;;;16.70;;
59790;SDS011;47431;51.640;5.554;2022-12-22T01:59:48;22.05;;;15.95;;
59790;SDS011;47431;51.640;5.554;2022-12-22T02:02:32;29.15;;;17.88;;
59790;SDS011;47431;51.640;5.554;2022-12-22T02:05:16;31.25;;;18.17;;
59790;SDS011;47431;51.640;5.554;2022-12-22T02:11:06;28.08;;;18.20;;
59790;SDS011;47431;51.640;5.554;2022-12-22T02:29:14;30.88;;;19.55;;
59790;SDS011;47431;51.640;5.554;2022-12-22T02:32:05;28.75;;;19.40;;
59790;SDS011;47431;51.640;5.554;2022-12-22T02:34:52;30.38;;;19.25;;
59790;SDS011;47431;51.640;5.554;2022-12-22T02:37:54;26.38;;;19.23;;
59790;SDS011;47431;51.640;5.554;2022-12-22T02:46:52;31.10;;;19.60;;
59790;SDS011;47431;51.640;5.554;2022-12-22T02:50:08;35.92;;;19.52;;
59790;SDS011;47431;51.640;5.554;2022-12-22T02:53:07;34.15;;;19.85;;
59790;SDS011;47431;51.640;5.554;2022-12-22T02:55:56;29.50;;;19.08;;
59790;SDS011;47431;51.640;5.554;2022-12-22T02:58:43;36.72;;;20.17;;
59790;SDS011;47431;51.640;5.554;2022-12-22T03:01:27;33.47;;;21.23;;
59790;SDS011;47431;51.640;5.554;2022-12-22T03:04:11;36.90;;;19.38;;
59790;SDS011;47431;51.640;5.554;2022-12-22T03:06:55;31.02;;;19.20;;
59790;SDS011;47431;51.640;5.554;2022-12-22T03:09:39;29.55;;;17.90;;
59790;SDS011;47431;51.640;5.554;2022-12-22T03:12:23;40.60;;;20.60;;
59790;SDS011;47431;51.640;5.554;2022-12-22T03:15:07;39.72;;;18.95;;
59790;SDS011;47431;51.640;5.554;2022-12-22T03:17:51;52.53;;;19.90;;
59790;SDS011;47431;51.640;5.554;2022-12-22T03:20:35;51.47;;;22.40;;
59790;SDS011;47431;51.640;5.554;2022-12-22T03:23:19;42.25;;;20.20;;
59790;SDS011;47431;51.640;5.554;2022-12-22T03:26:03;77.80;;;21.85;;
59790;SDS011;47431;51.640;5.554;2022-12-22T03:28:28;54.00;;;22.05;;
59790;SDS011;47431;51.640;5.554;2022-12-22T03:33:22;108.88;;;26.80;;
59790;SDS011;47431;51.640;5.554;2022-12-22T03:35:47;38.13;;;18.73;;
59790;SDS011;47431;51.640;5.554;2022-12-22T03:38:12;64.03;;;22.50;;
59790;SDS011;47431;51.640;5.554;2022-12-22T03:40:38;42.55;;;20.25;;
59790;SDS011;47431;51.640;5.554;2022-12-22T03:43:03;53.78;;;20.88;;
59790;SDS011;47431;51.640;5.554;2022-12-22T03:45:52;72.25;;;21.20;;
59790;SDS011;47431;51.640;5.554;2022-12-22T03:48:37;378.95;;;48.40;;
59790;SDS011;47431;51.640;5.554;2022-12-22T03:51:02;502.42;;;54.70;;
59790;SDS011;47431;51.640;5.554;2022-12-22T03:53:28;508.92;;;55.78;;
59790;SDS011;47431;51.640;5.554;2022-12-22T03:55:53;421.85;;;46.80;;
59790;SDS011;47431;51.640;5.554;2022-12-22T03:58:18;394.33;;;39.90;;
59790;SDS011;47431;51.640;5.554;2022-12-22T04:00:44;426.38;;;38.28;;
59790;SDS011;47431;51.640;5.554;2022-12-22T04:03:10;244.18;;;27.88;;
59790;SDS011;47431;51.640;5.554;2022-12-22T04:05:35;387.90;;;42.67;;
59790;SDS011;47431;51.640;5.554;2022-12-22T04:08:00;383.90;;;45.42;;
59790;SDS011;47431;51.640;5.554;2022-12-22T04:10:26;475.98;;;57.05;;
59790;SDS011;47431;51.640;5.554;2022-12-22T04:13:10;466.60;;;47.33;;
59790;SDS011;47431;51.640;5.554;2022-12-22T04:15:35;384.85;;;49.45;;
59790;SDS011;47431;51.640;5.554;2022-12-22T04:18:01;517.50;;;58.17;;
59790;SDS011;47431;51.640;5.554;2022-12-22T04:20:26;507.20;;;60.92;;
59790;SDS011;47431;51.640;5.554;2022-12-22T04:22:52;388.85;;;48.72;;
59790;SDS011;47431;51.640;5.554;2022-12-22T04:25:19;431.95;;;54.63;;
59790;SDS011;47431;51.640;5.554;2022-12-22T04:27:44;317.67;;;48.67;;
59790;SDS011;47431;51.640;5.554;2022-12-22T04:30:10;393.27;;;53.33;;
59790;SDS011;47431;51.640;5.554;2022-12-22T04:32:36;114.35;;;26.58;;
59790;SDS011;47431;51.640;5.554;2022-12-22T04:35:02;144.43;;;33.40;;
59790;SDS011;47431;51.640;5.554;2022-12-22T04:37:28;245.35;;;37.83;;
59790;SDS011;47431;51.640;5.554;2022-12-22T04:39:53;216.95;;;37.28;;
59790;SDS011;47431;51.640;5.554;2022-12-22T04:42:19;187.10;;;35.53;;
59790;SDS011;47431;51.640;5.554;2022-12-22T04:44:44;358.15;;;51.88;;
59790;SDS011;47431;51.640;5.554;2022-12-22T04:47:09;375.83;;;54.63;;
59790;SDS011;47431;51.640;5.554;2022-12-22T04:49:35;410.30;;;59.17;;
59790;SDS011;47431;51.640;5.554;2022-12-22T04:52:00;442.05;;;61.83;;
59790;SDS011;47431;51.640;5.554;2022-12-22T04:54:26;472.27;;;60.25;;
59790;SDS011;47431;51.640;5.554;2022-12-22T04:56:52;454.77;;;58.30;;
59790;SDS011;47431;51.640;5.554;2022-12-22T04:59:17;405.80;;;57.65;;
59790;SDS011;47431;51.640;5.554;2022-12-22T05:01:42;254.13;;;39.75;;
59790;SDS011;47431;51.640;5.554;2022-12-22T05:04:08;210.88;;;36.33;;
59790;SDS011;47431;51.640;5.554;2022-12-22T05:06:33;191.77;;;35.97;;
59790;SDS011;47431;51.640;5.554;2022-12-22T05:08:59;272.05;;;42.35;;
59790;SDS011;47431;51.640;5.554;2022-12-22T05:11:24;196.57;;;35.97;;
59790;SDS011;47431;51.640;5.554;2022-12-22T05:13:49;217.57;;;36.30;;
59790;SDS011;47431;51.640;5.554;2022-12-22T05:16:14;296.52;;;44.67;;
59790;SDS011;47431;51.640;5.554;2022-12-22T05:18:41;250.00;;;38.38;;
59790;SDS011;47431;51.640;5.554;2022-12-22T05:21:12;259.55;;;42.40;;
59790;SDS011;47431;51.640;5.554;2022-12-22T05:23:39;359.85;;;50.17;;
59790;SDS011;47431;51.640;5.554;2022-12-22T05:26:05;196.73;;;32.95;;
59790;SDS011;47431;51.640;5.554;2022-12-22T05:28:30;325.20;;;44.30;;
59790;SDS011;47431;51.640;5.554;2022-12-22T05:30:56;160.63;;;32.00;;
59790;SDS011;47431;51.640;5.554;2022-12-22T05:33:27;328.95;;;46.72;;
59790;SDS011;47431;51.640;5.554;2022-12-22T05:35:52;234.73;;;34.67;;
59790;SDS011;47431;51.640;5.554;2022-12-22T05:38:17;265.23;;;38.47;;
59790;SDS011;47431;51.640;5.554;2022-12-22T05:40:43;205.80;;;32.83;;
59790;SDS011;47431;51.640;5.554;2022-12-22T05:43:08;218.50;;;39.13;;
59790;SDS011;47431;51.640;5.554;2022-12-22T05:45:34;211.20;;;34.20;;
59790;SDS011;47431;51.640;5.554;2022-12-22T05:47:59;217.25;;;34.30;;
59790;SDS011;47431;51.640;5.554;2022-12-22T05:50:25;199.15;;;35.90;;
59790;SDS011;47431;51.640;5.554;2022-12-22T05:52:50;271.98;;;37.92;;
59790;SDS011;47431;51.640;5.554;2022-12-22T05:55:15;248.60;;;38.65;;
59790;SDS011;47431;51.640;5.554;2022-12-22T05:57:41;284.50;;;41.47;;
59790;SDS011;47431;51.640;5.554;2022-12-22T06:00:08;250.07;;;38.25;;
59790;SDS011;47431;51.640;5.554;2022-12-22T06:02:39;284.15;;;42.60;;
59790;SDS011;47431;51.640;5.554;2022-12-22T06:05:06;224.63;;;37.97;;
59790;SDS011;47431;51.640;5.554;2022-12-22T06:07:32;189.70;;;34.28;;
59790;SDS011;47431;51.640;5.554;2022-12-22T06:09:58;177.50;;;32.33;;
59790;SDS011;47431;51.640;5.554;2022-12-22T06:12:23;240.82;;;36.75;;
59790;SDS011;47431;51.640;5.554;2022-12-22T06:14:49;118.50;;;31.20;;
59790;SDS011;47431;51.640;5.554;2022-12-22T06:17:14;159.13;;;32.50;;
59790;SDS011;47431;51.640;5.554;2022-12-22T06:19:40;91.20;;;27.90;;
59790;SDS011;47431;51.640;5.554;2022-12-22T06:22:05;104.53;;;31.25;;
59790;SDS011;47431;51.640;5.554;2022-12-22T06:24:31;137.05;;;30.80;;
59790;SDS011;47431;51.640;5.554;2022-12-22T06:26:56;112.28;;;31.58;;
59790;SDS011;47431;51.640;5.554;2022-12-22T06:29:22;86.65;;;30.52;;
59790;SDS011;47431;51.640;5.554;2022-12-22T06:31:47;106.03;;;29.17;;
59790;SDS011;47431;51.640;5.554;2022-12-22T06:34:13;81.82;;;29.40;;
59790;SDS011;47431;51.640;5.554;2022-12-22T06:36:41;81.07;;;31.33;;
59790;SDS011;47431;51.640;5.554;2022-12-22T06:39:07;97.65;;;32.47;;
59790;SDS011;47431;51.640;5.554;2022-12-22T06:41:33;83.35;;;29.98;;
59790;SDS011;47431;51.640;5.554;2022-12-22T06:44:16;91.88;;;33.00;;
59790;SDS011;47431;51.640;5.554;2022-12-22T06:46:42;114.32;;;34.35;;
59790;SDS011;47431;51.640;5.554;2022-12-22T06:49:07;88.93;;;32.70;;
59790;SDS011;47431;51.640;5.554;2022-12-22T06:51:33;95.47;;;35.80;;
59790;SDS011;47431;51.640;5.554;2022-12-22T06:53:58;97.47;;;37.00;;
59790;SDS011;47431;51.640;5.554;2022-12-22T06:56:23;109.60;;;35.92;;
59790;SDS011;47431;51.640;5.554;2022-12-22T06:58:49;117.35;;;38.22;;
59790;SDS011;47431;51.640;5.554;2022-12-22T07:01:14;121.88;;;37.00;;
59790;SDS011;47431;51.640;5.554;2022-12-22T07:03:39;142.75;;;39.38;;
59790;SDS011;47431;51.640;5.554;2022-12-22T07:06:05;164.82;;;40.85;;
59790;SDS011;47431;51.640;5.554;2022-12-22T07:08:30;97.05;;;35.78;;
59790;SDS011;47431;51.640;5.554;2022-12-22T07:10:56;113.22;;;39.15;;
59790;SDS011;47431;51.640;5.554;2022-12-22T07:13:25;143.02;;;43.03;;
59790;SDS011;47431;51.640;5.554;2022-12-22T07:15:53;131.95;;;42.33;;
59790;SDS011;47431;51.640;5.554;2022-12-22T07:18:18;133.40;;;43.63;;
59790;SDS011;47431;51.640;5.554;2022-12-22T07:20:44;168.20;;;44.67;;
59790;SDS011;47431;51.640;5.554;2022-12-22T07:23:10;156.95;;;45.20;;
59790;SDS011;47431;51.640;5.554;2022-12-22T07:25:35;150.15;;;44.30;;
59790;SDS011;47431;51.640;5.554;2022-12-22T07:28:01;146.18;;;43.85;;
59790;SDS011;47431;51.640;5.554;2022-12-22T07:30:27;163.02;;;45.55;;
59790;SDS011;47431;51.640;5.554;2022-12-22T07:32:52;162.35;;;43.35;;
59790;SDS011;47431;51.640;5.554;2022-12-22T07:35:18;185.13;;;46.80;;
59790;SDS011;47431;51.640;5.554;2022-12-22T07:37:43;137.27;;;42.00;;
59790;SDS011;47431;51.640;5.554;2022-12-22T07:40:08;181.90;;;45.53;;
59790;SDS011;47431;51.640;5.554;2022-12-22T07:42:34;151.25;;;44.45;;
59790;SDS011;47431;51.640;5.554;2022-12-22T07:45:08;161.63;;;45.78;;
59790;SDS011;47431;51.640;5.554;2022-12-22T07:47:38;184.07;;;42.33;;
59790;SDS011;47431;51.640;5.554;2022-12-22T07:50:05;185.10;;;43.80;;
59790;SDS011;47431;51.640;5.554;2022-12-22T07:55:28;146.43;;;44.53;;
59790;SDS011;47431;51.640;5.554;2022-12-22T07:57:59;175.80;;;48.47;;
59790;SDS011;47431;51.640;5.554;2022-12-22T08:00:24;180.25;;;49.47;;
59790;SDS011;47431;51.640;5.554;2022-12-22T08:02:50;196.77;;;51.75;;
59790;SDS011;47431;51.640;5.554;2022-12-22T08:05:21;194.25;;;49.53;;
59790;SDS011;47431;51.640;5.554;2022-12-22T08:07:49;161.20;;;47.95;;
59790;SDS011;47431;51.640;5.554;2022-12-22T08:10:16;166.85;;;47.08;;
59790;SDS011;47431;51.640;5.554;2022-12-22T08:12:43;166.48;;;48.55;;
59790;SDS011;47431;51.640;5.554;2022-12-22T08:15:10;162.50;;;46.75;;
59790;SDS011;47431;51.640;5.554;2022-12-22T08:17:36;174.05;;;45.83;;
59790;SDS011;47431;51.640;5.554;2022-12-22T08:20:02;160.63;;;47.35;;
59790;SDS011;47431;51.640;5.554;2022-12-22T08:22:28;205.90;;;51.67;;
59790;SDS011;47431;51.640;5.554;2022-12-22T08:24:54;208.10;;;51.70;;
59790;SDS011;47431;51.640;5.554;2022-12-22T08:27:25;145.38;;;45.45;;
59790;SDS011;47431;51.640;5.554;2022-12-22T08:29:57;146.90;;;45.00;;
59790;SDS011;47431;51.640;5.554;2022-12-22T08:32:24;156.57;;;46.15;;
59790;SDS011;47431;51.640;5.554;2022-12-22T08:34:51;161.23;;;47.67;;
59790;SDS011;47431;51.640;5.554;2022-12-22T08:37:17;176.40;;;46.35;;
59790;SDS011;47431;51.640;5.554;2022-12-22T08:39:49;141.05;;;43.10;;
59790;SDS011;47431;51.640;5.554;2022-12-22T08:42:19;159.95;;;47.05;;
59790;SDS011;47431;51.640;5.554;2022-12-22T08:44:48;150.23;;;46.35;;
59790;SDS011;47431;51.640;5.554;2022-12-22T08:47:17;159.77;;;46.28;;
59790;SDS011;47431;51.640;5.554;2022-12-22T08:49:46;117.60;;;38.40;;
59790;SDS011;47431;51.640;5.554;2022-12-22T08:52:11;119.63;;;40.70;;
59790;SDS011;47431;51.640;5.554;2022-12-22T08:54:37;108.85;;;37.08;;
59790;SDS011;47431;51.640;5.554;2022-12-22T08:57:03;119.45;;;40.33;;
59790;SDS011;47431;51.640;5.554;2022-12-22T08:59:28;112.88;;;40.08;;
59790;SDS011;47431;51.640;5.554;2022-12-22T09:01:53;117.35;;;40.15;;
59790;SDS011;47431;51.640;5.554;2022-12-22T09:04:20;110.90;;;38.35;;
59790;SDS011;47431;51.640;5.554;2022-12-22T09:06:46;124.68;;;40.88;;
59790;SDS011;47431;51.640;5.554;2022-12-22T09:09:13;107.15;;;37.60;;
59790;SDS011;47431;51.640;5.554;2022-12-22T09:11:40;101.75;;;37.92;;
59790;SDS011;47431;51.640;5.554;2022-12-22T09:14:06;106.43;;;37.97;;
59790;SDS011;47431;51.640;5.554;2022-12-22T09:16:33;113.07;;;37.92;;
59790;SDS011;47431;51.640;5.554;2022-12-22T09:18:59;122.97;;;41.45;;
59790;SDS011;47431;51.640;5.554;2022-12-22T09:21:26;109.40;;;37.58;;
59790;SDS011;47431;51.640;5.554;2022-12-22T09:23:51;122.15;;;38.15;;
59790;SDS011;47431;51.640;5.554;2022-12-22T09:26:19;119.95;;;40.30;;
59790;SDS011;47431;51.640;5.554;2022-12-22T09:28:45;110.95;;;38.85;;
59790;SDS011;47431;51.640;5.554;2022-12-22T09:31:11;123.30;;;41.63;;
59790;SDS011;47431;51.640;5.554;2022-12-22T09:33:37;129.93;;;47.17;;
59790;SDS011;47431;51.640;5.554;2022-12-22T09:36:07;119.20;;;41.72;;
59790;SDS011;47431;51.640;5.554;2022-12-22T09:38:34;140.43;;;46.28;;
59790;SDS011;47431;51.640;5.554;2022-12-22T09:41:05;149.52;;;46.85;;
59790;SDS011;47431;51.640;5.554;2022-12-22T09:43:56;126.80;;;42.95;;
59790;SDS011;47431;51.640;5.554;2022-12-22T09:46:26;134.85;;;44.00;;
59790;SDS011;47431;51.640;5.554;2022-12-22T09:48:54;108.90;;;39.42;;
59790;SDS011;47431;51.640;5.554;2022-12-22T09:51:19;93.55;;;35.28;;
59790;SDS011;47431;51.640;5.554;2022-12-22T09:53:47;115.28;;;37.30;;
59790;SDS011;47431;51.640;5.554;2022-12-22T09:56:16;87.82;;;32.40;;
59790;SDS011;47431;51.640;5.554;2022-12-22T09:58:42;82.90;;;33.75;;
59790;SDS011;47431;51.640;5.554;2022-12-22T10:03:45;106.45;;;35.25;;
59790;SDS011;47431;51.640;5.554;2022-12-22T10:09:21;80.70;;;35.60;;
59790;SDS011;47431;51.640;5.554;2022-12-22T10:11:49;88.00;;;36.22;;
59790;SDS011;47431;51.640;5.554;2022-12-22T10:14:16;83.50;;;32.97;;
59790;SDS011;47431;51.640;5.554;2022-12-22T10:16:41;65.22;;;31.95;;
59790;SDS011;47431;51.640;5.554;2022-12-22T10:19:07;82.53;;;29.67;;
59790;SDS011;47431;51.640;5.554;2022-12-22T10:21:35;54.83;;;27.42;;
59790;SDS011;47431;51.640;5.554;2022-12-22T10:24:13;60.10;;;30.27;;
59790;SDS011;47431;51.640;5.554;2022-12-22T10:26:55;69.53;;;32.78;;
59790;SDS011;47431;51.640;5.554;2022-12-22T10:29:23;56.85;;;29.63;;
59790;SDS011;47431;51.640;5.554;2022-12-22T10:31:57;79.88;;;33.42;;
59790;SDS011;47431;51.640;5.554;2022-12-22T10:34:27;66.13;;;34.42;;
59790;SDS011;47431;51.640;5.554;2022-12-22T10:37:00;87.38;;;38.45;;
59790;SDS011;47431;51.640;5.554;2022-12-22T10:39:28;87.40;;;39.70;;
59790;SDS011;47431;51.640;5.554;2022-12-22T10:42:01;67.05;;;34.08;;
59790;SDS011;47431;51.640;5.554;2022-12-22T10:44:32;79.93;;;36.05;;
59790;SDS011;47431;51.640;5.554;2022-12-22T10:47:14;59.70;;;34.13;;
59790;SDS011;47431;51.640;5.554;2022-12-22T10:49:44;76.57;;;36.30;;
59790;SDS011;47431;51.640;5.554;2022-12-22T10:52:12;62.95;;;35.05;;
59790;SDS011;47431;51.640;5.554;2022-12-22T10:54:40;71.25;;;33.50;;
59790;SDS011;47431;51.640;5.554;2022-12-22T10:59:45;63.13;;;31.52;;
59790;SDS011;47431;51.640;5.554;2022-12-22T11:04:46;67.38;;;28.70;;
59790;SDS011;47431;51.640;5.554;2022-12-22T11:07:12;59.20;;;27.48;;
59790;SDS011;47431;51.640;5.554;2022-12-22T11:09:37;46.95;;;26.58;;
59790;SDS011;47431;51.640;5.554;2022-12-22T11:23:34;49.05;;;22.98;;
59790;SDS011;47431;51.640;5.554;2022-12-22T11:26:14;44.75;;;23.30;;
59790;SDS011;47431;51.640;5.554;2022-12-22T11:45:56;50.38;;;22.58;;
59790;SDS011;47431;51.640;5.554;2022-12-22T11:56:40;42.22;;;25.40;;
59790;SDS011;47431;51.640;5.554;2022-12-22T12:02:39;48.70;;;35.50;;
59790;SDS011;47431;51.640;5.554;2022-12-22T12:08:09;65.80;;;37.58;;
59790;SDS011;47431;51.640;5.554;2022-12-22T12:10:40;63.78;;;38.35;;
59790;SDS011;47431;51.640;5.554;2022-12-22T12:21:23;72.88;;;45.35;;
59790;SDS011;47431;51.640;5.554;2022-12-22T12:29:14;44.10;;;30.75;;
59790;SDS011;47431;51.640;5.554;2022-12-22T12:31:52;59.53;;;33.00;;
59790;SDS011;47431;51.640;5.554;2022-12-22T12:34:25;59.15;;;33.63;;
59790;SDS011;47431;51.640;5.554;2022-12-22T12:39:58;56.45;;;33.47;;
59790;SDS011;47431;51.640;5.554;2022-12-22T12:42:45;56.75;;;32.35;;
59790;SDS011;47431;51.640;5.554;2022-12-22T12:50:51;52.33;;;32.97;;
59790;SDS011;47431;51.640;5.554;2022-12-22T12:53:21;49.45;;;33.83;;
59790;SDS011;47431;51.640;5.554;2022-12-22T12:55:52;41.90;;;29.88;;
59790;SDS011;47431;51.640;5.554;2022-12-22T13:00:59;36.28;;;28.17;;
59790;SDS011;47431;51.640;5.554;2022-12-22T13:05:55;44.47;;;31.17;;
59790;SDS011;47431;51.640;5.554;2022-12-22T13:23:30;53.85;;;30.52;;
59790;SDS011;47431;51.640;5.554;2022-12-22T13:26:13;44.30;;;26.27;;
59790;SDS011;47431;51.640;5.554;2022-12-22T13:28:45;53.45;;;33.58;;
59790;SDS011;47431;51.640;5.554;2022-12-22T13:31:24;55.42;;;29.13;;
59790;SDS011;47431;51.640;5.554;2022-12-22T13:34:00;67.60;;;30.80;;
59790;SDS011;47431;51.640;5.554;2022-12-22T13:36:30;39.45;;;27.75;;
59790;SDS011;47431;51.640;5.554;2022-12-22T13:39:05;42.10;;;27.98;;
59790;SDS011;47431;51.640;5.554;2022-12-22T13:41:38;39.15;;;27.55;;
59790;SDS011;47431;51.640;5.554;2022-12-22T13:44:09;45.70;;;26.70;;
59790;SDS011;47431;51.640;5.554;2022-12-22T13:46:47;42.45;;;28.35;;
59790;SDS011;47431;51.640;5.554;2022-12-22T13:49:14;45.00;;;28.98;;
59790;SDS011;47431;51.640;5.554;2022-12-22T13:51:42;46.90;;;28.58;;
59790;SDS011;47431;51.640;5.554;2022-12-22T13:54:28;44.55;;;28.33;;
59790;SDS011;47431;51.640;5.554;2022-12-22T13:56:57;49.55;;;29.10;;
59790;SDS011;47431;51.640;5.554;2022-12-22T13:59:29;43.53;;;28.90;;
59790;SDS011;47431;51.640;5.554;2022-12-22T14:02:03;41.60;;;27.30;;
59790;SDS011;47431;51.640;5.554;2022-12-22T14:04:31;44.97;;;28.92;;
59790;SDS011;47431;51.640;5.554;2022-12-22T14:06:57;48.38;;;29.58;;
59790;SDS011;47431;51.640;5.554;2022-12-22T14:09:44;34.58;;;25.73;;
59790;SDS011;47431;51.640;5.554;2022-12-22T14:12:12;36.03;;;23.13;;
59790;SDS011;47431;51.640;5.554;2022-12-22T14:14:41;35.17;;;23.75;;
59790;SDS011;47431;51.640;5.554;2022-12-22T14:17:21;25.70;;;19.55;;
59790;SDS011;47431;51.640;5.554;2022-12-22T14:19:52;37.47;;;20.67;;
59790;SDS011;47431;51.640;5.554;2022-12-22T14:25:26;44.40;;;21.70;;
59790;SDS011;47431;51.640;5.554;2022-12-22T14:27:55;34.17;;;20.85;;
59790;SDS011;47431;51.640;5.554;2022-12-22T14:30:23;34.78;;;21.58;;
59790;SDS011;47431;51.640;5.554;2022-12-22T14:33:01;34.88;;;20.85;;
59790;SDS011;47431;51.640;5.554;2022-12-22T14:35:40;29.95;;;21.48;;
59790;SDS011;47431;51.640;5.554;2022-12-22T14:40:37;27.00;;;19.17;;
59790;SDS011;47431;51.640;5.554;2022-12-22T14:43:22;30.10;;;19.70;;
59790;SDS011;47431;51.640;5.554;2022-12-22T14:45:50;29.88;;;19.45;;
59790;SDS011;47431;51.640;5.554;2022-12-22T14:48:28;36.33;;;21.85;;
59790;SDS011;47431;51.640;5.554;2022-12-22T14:50:56;33.85;;;22.20;;
59790;SDS011;47431;51.640;5.554;2022-12-22T14:53:26;32.83;;;21.58;;
59790;SDS011;47431;51.640;5.554;2022-12-22T14:56:09;38.63;;;22.48;;
59790;SDS011;47431;51.640;5.554;2022-12-22T14:58:39;32.03;;;21.60;;
59790;SDS011;47431;51.640;5.554;2022-12-22T15:01:22;31.33;;;21.15;;
59790;SDS011;47431;51.640;5.554;2022-12-22T15:04:05;32.70;;;20.88;;
59790;SDS011;47431;51.640;5.554;2022-12-22T15:06:44;34.13;;;23.27;;
59790;SDS011;47431;51.640;5.554;2022-12-22T15:11:42;35.00;;;22.45;;
59790;SDS011;47431;51.640;5.554;2022-12-22T15:14:20;27.40;;;21.95;;
59790;SDS011;47431;51.640;5.554;2022-12-22T15:16:48;32.25;;;21.85;;
59790;SDS011;47431;51.640;5.554;2022-12-22T15:19:15;35.42;;;22.25;;
59790;SDS011;47431;51.640;5.554;2022-12-22T15:21:43;35.50;;;19.83;;
59790;SDS011;47431;51.640;5.554;2022-12-22T15:24:12;27.52;;;18.35;;
59790;SDS011;47431;51.640;5.554;2022-12-22T15:26:40;32.13;;;18.90;;
59790;SDS011;47431;51.640;5.554;2022-12-22T15:29:07;23.90;;;18.65;;
59790;SDS011;47431;51.640;5.554;2022-12-22T15:31:33;27.30;;;17.90;;
59790;SDS011;47431;51.640;5.554;2022-12-22T15:33:59;28.95;;;17.15;;
59790;SDS011;47431;51.640;5.554;2022-12-22T15:36:26;32.13;;;19.48;;
59790;SDS011;47431;51.640;5.554;2022-12-22T15:38:51;25.23;;;18.95;;
59790;SDS011;47431;51.640;5.554;2022-12-22T15:41:16;31.70;;;20.30;;
59790;SDS011;47431;51.640;5.554;2022-12-22T15:43:42;28.50;;;19.08;;
59790;SDS011;47431;51.640;5.554;2022-12-22T15:46:10;32.47;;;19.88;;
59790;SDS011;47431;51.640;5.554;2022-12-22T15:48:38;30.77;;;18.33;;
59790;SDS011;47431;51.640;5.554;2022-12-22T15:51:05;29.27;;;19.90;;
59790;SDS011;47431;51.640;5.554;2022-12-22T15:53:32;26.52;;;18.65;;
59790;SDS011;47431;51.640;5.554;2022-12-22T15:55:59;24.85;;;16.63;;
59790;SDS011;47431;51.640;5.554;2022-12-22T15:58:26;34.78;;;20.08;;
59790;SDS011;47431;51.640;5.554;2022-12-22T16:00:54;26.60;;;19.38;;
59790;SDS011;47431;51.640;5.554;2022-12-22T16:03:20;28.95;;;20.80;;
59790;SDS011;47431;51.640;5.554;2022-12-22T16:05:45;32.28;;;19.17;;
59790;SDS011;47431;51.640;5.554;2022-12-22T16:08:11;30.30;;;18.65;;
59790;SDS011;47431;51.640;5.554;2022-12-22T16:10:40;26.95;;;20.33;;
59790;SDS011;47431;51.640;5.554;2022-12-22T16:13:10;40.20;;;21.60;;
59790;SDS011;47431;51.640;5.554;2022-12-22T16:15:37;26.77;;;19.50;;
59790;SDS011;47431;51.640;5.554;2022-12-22T16:18:03;30.50;;;21.27;;
59790;SDS011;47431;51.640;5.554;2022-12-22T16:20:32;30.70;;;19.90;;
59790;SDS011;47431;51.640;5.554;2022-12-22T16:23:02;25.13;;;18.90;;
59790;SDS011;47431;51.640;5.554;2022-12-22T16:25:30;41.13;;;23.10;;
59790;SDS011;47431;51.640;5.554;2022-12-22T16:28:01;25.38;;;19.40;;
59790;SDS011;47431;51.640;5.554;2022-12-22T16:30:28;24.80;;;16.70;;
59790;SDS011;47431;51.640;5.554;2022-12-22T16:32:55;35.70;;;24.25;;
59790;SDS011;47431;51.640;5.554;2022-12-22T16:35:23;32.30;;;20.63;;
59790;SDS011;47431;51.640;5.554;2022-12-22T16:37:50;34.75;;;25.35;;
59790;SDS011;47431;51.640;5.554;2022-12-22T16:40:20;26.60;;;20.75;;
59790;SDS011;47431;51.640;5.554;2022-12-22T16:42:49;27.27;;;21.80;;
59790;SDS011;47431;51.640;5.554;2022-12-22T16:45:22;30.92;;;20.48;;
59790;SDS011;47431;51.640;5.554;2022-12-22T16:47:51;27.83;;;22.30;;
59790;SDS011;47431;51.640;5.554;2022-12-22T16:50:19;24.60;;;19.05;;
59790;SDS011;47431;51.640;5.554;2022-12-22T16:52:46;28.90;;;21.75;;
59790;SDS011;47431;51.640;5.554;2022-12-22T16:55:15;27.77;;;19.90;;
59790;SDS011;47431;51.640;5.554;2022-12-22T16:57:42;25.42;;;19.55;;